createdAt,value
2023-02-04T00:00:02.366Z,33.43
2023-02-04T00:02:29.221Z,27.57
2023-02-04T00:04:56.826Z,40.90
2023-02-04T00:07:23.514Z,35.07
2023-02-04T00:09:50.764Z,31.73
2023-02-04T00:12:17.863Z,24.63
2023-02-04T00:15:04.944Z,21.23
2023-02-04T00:17:51.843Z,31.23
2023-02-04T00:20:29.045Z,30.87
2023-02-04T00:23:00.028Z,25.80
2023-02-04T00:25:46.712Z,34.83
2023-02-04T00:28:14.160Z,34.40
2023-02-04T00:30:41.118Z,22.27
2023-02-04T00:33:08.165Z,27.00
2023-02-04T00:35:37.379Z,23.23
2023-02-04T00:38:05.453Z,23.97
2023-02-04T00:40:32.754Z,29.23
2023-02-04T00:42:59.705Z,34.83
2023-02-04T00:45:26.576Z,36.10
2023-02-04T00:47:53.325Z,25.73
2023-02-04T00:50:20.055Z,32.33
2023-02-04T00:52:46.856Z,36.57
2023-02-04T00:55:15.758Z,30.40
2023-02-04T00:57:42.960Z,26.43
2023-02-04T01:00:10.517Z,33.77
2023-02-04T01:02:37.243Z,33.27
2023-02-04T01:05:04.092Z,26.93
2023-02-04T01:07:31.182Z,32.07
2023-02-04T01:09:57.963Z,23.53
2023-02-04T01:12:27.352Z,32.37
2023-02-04T01:14:54.836Z,26.87
2023-02-04T01:17:21.916Z,36.80
2023-02-04T01:19:48.670Z,28.17
2023-02-04T01:22:15.421Z,23.07
2023-02-04T01:24:42.073Z,29.80
2023-02-04T01:27:08.868Z,32.00
2023-02-04T01:29:35.544Z,26.57
2023-02-04T01:32:02.229Z,18.33
2023-02-04T01:34:31.594Z,27.10
2023-02-04T01:36:58.456Z,18.67
2023-02-04T01:39:25.190Z,19.33
2023-02-04T01:41:51.925Z,19.20
2023-02-04T01:44:18.772Z,19.17
2023-02-04T01:46:45.620Z,26.37
2023-02-04T01:49:12.364Z,21.97
2023-02-04T01:51:39.566Z,28.47
2023-02-04T01:54:09.423Z,17.90
2023-02-04T01:56:36.088Z,22.57
2023-02-04T01:59:02.946Z,21.27
2023-02-04T02:01:42.105Z,19.13
2023-02-04T02:04:14.856Z,19.23
2023-02-04T02:06:46.980Z,25.47
2023-02-04T02:09:13.752Z,17.00
2023-02-04T02:11:40.916Z,15.43
2023-02-04T02:14:08.232Z,15.53
2023-02-04T02:16:35.089Z,14.43
2023-02-04T02:19:01.954Z,18.97
2023-02-04T02:21:52.107Z,21.00
2023-02-04T02:24:28.497Z,19.13
2023-02-04T02:26:57.854Z,24.87
2023-02-04T02:29:25.889Z,23.30
2023-02-04T02:31:53.707Z,15.40
2023-02-04T02:34:20.815Z,18.43
2023-02-04T02:36:47.522Z,15.57
2023-02-04T02:39:14.265Z,19.63
2023-02-04T02:41:41.316Z,17.77
2023-02-04T02:44:11.396Z,19.30
2023-02-04T02:46:38.484Z,23.70
2023-02-04T02:49:05.187Z,17.83
2023-02-04T02:51:32.108Z,20.30
2023-02-04T02:53:59.098Z,21.77
2023-02-04T02:56:25.774Z,21.17
2023-02-04T02:58:53.253Z,16.30
2023-02-04T03:01:20.135Z,26.00
2023-02-04T03:03:51.921Z,14.20
2023-02-04T03:06:25.193Z,15.53
2023-02-04T03:08:55.326Z,14.27
2023-02-04T03:11:22.845Z,17.07
2023-02-04T03:13:51.135Z,17.30
2023-02-04T03:16:17.986Z,17.90
2023-02-04T03:18:44.796Z,20.17
2023-02-04T03:21:11.555Z,17.63
2023-02-04T03:23:38.594Z,17.67
2023-02-04T03:26:06.262Z,18.63
2023-02-04T03:28:34.327Z,15.90
2023-02-04T03:31:01.293Z,13.90
2023-02-04T03:33:31.977Z,17.23
2023-02-04T03:35:59.415Z,16.43
2023-02-04T03:38:26.616Z,14.67
2023-02-04T03:40:53.424Z,10.43
2023-02-04T03:43:20.316Z,10.33
2023-02-04T03:45:47.109Z,11.33
2023-02-04T03:48:14.225Z,11.37
2023-02-04T03:50:41.529Z,9.80
2023-02-04T03:53:09.445Z,7.43
2023-02-04T03:55:36.224Z,13.60
2023-02-04T03:58:04.250Z,13.30
2023-02-04T04:00:32.609Z,10.70
2023-02-04T04:02:59.955Z,15.30
2023-02-04T04:05:28.048Z,8.90
2023-02-04T04:07:54.711Z,10.43
2023-02-04T04:10:21.451Z,11.80
2023-02-04T04:12:48.103Z,17.60
2023-02-04T04:15:14.809Z,11.57
2023-02-04T04:17:41.451Z,9.03
2023-02-04T04:20:08.711Z,10.57
2023-02-04T04:22:35.364Z,9.43
2023-02-04T04:25:02.092Z,10.20
2023-02-04T04:27:30.216Z,9.13
2023-02-04T04:29:57.652Z,8.20
2023-02-04T04:32:24.897Z,7.67
2023-02-04T04:34:51.613Z,8.23
2023-02-04T04:37:18.452Z,5.67
2023-02-04T04:39:45.145Z,6.53
2023-02-04T04:42:11.838Z,7.90
2023-02-04T04:44:38.637Z,9.00
2023-02-04T04:47:05.426Z,11.40
2023-02-04T04:49:32.228Z,6.03
2023-02-04T04:51:58.896Z,5.83
2023-02-04T04:54:25.594Z,5.70
2023-02-04T04:56:52.223Z,7.17
2023-02-04T04:59:19.008Z,6.33
2023-02-04T05:01:45.744Z,7.03
2023-02-04T05:04:12.359Z,8.17
2023-02-04T05:06:39.144Z,6.27
2023-02-04T05:09:05.982Z,6.67
2023-02-04T05:11:32.644Z,7.20
2023-02-04T05:13:59.380Z,7.13
2023-02-04T05:16:26.144Z,8.87
2023-02-04T05:18:52.868Z,5.13
2023-02-04T05:21:19.593Z,8.07
2023-02-04T05:23:46.287Z,7.97
2023-02-04T05:26:19.504Z,6.67
2023-02-04T05:28:51.868Z,4.97
2023-02-04T05:31:18.713Z,10.13
2023-02-04T05:33:45.411Z,5.50
2023-02-04T05:36:12.121Z,7.53
2023-02-04T05:38:38.893Z,7.67
2023-02-04T05:41:05.619Z,6.57
2023-02-04T05:43:32.327Z,5.33
2023-02-04T05:45:59.153Z,8.70
2023-02-04T05:48:25.900Z,4.83
2023-02-04T05:50:52.724Z,7.43
2023-02-04T05:53:19.388Z,3.70
2023-02-04T05:55:46.080Z,3.47
2023-02-04T05:58:12.822Z,4.83
2023-02-04T06:00:40.895Z,6.77
2023-02-04T06:03:07.705Z,8.60
2023-02-04T06:05:34.363Z,4.30
2023-02-04T06:08:01.150Z,3.07
2023-02-04T06:10:27.989Z,4.80
2023-02-04T06:12:54.619Z,6.33
2023-02-04T06:15:21.327Z,7.13
2023-02-04T06:17:48.031Z,5.23
2023-02-04T06:20:15.107Z,6.63
2023-02-04T06:22:41.875Z,5.43
2023-02-04T06:25:08.816Z,5.77
2023-02-04T06:27:35.453Z,5.70
2023-02-04T06:30:02.262Z,6.73
2023-02-04T06:32:28.906Z,7.33
2023-02-04T06:34:55.595Z,6.50
2023-02-04T06:37:24.325Z,11.17
2023-02-04T06:39:51.942Z,5.53
2023-02-04T06:42:18.673Z,6.70
2023-02-04T06:44:45.432Z,7.20
2023-02-04T06:47:12.173Z,5.87
2023-02-04T06:49:38.921Z,10.33
2023-02-04T06:52:05.942Z,8.00
2023-02-04T06:54:32.595Z,4.90
2023-02-04T06:57:06.592Z,4.60
2023-02-04T06:59:40.628Z,4.40
2023-02-04T07:02:08.132Z,3.87
2023-02-04T07:04:35.486Z,7.13
2023-02-04T07:07:02.211Z,7.57
2023-02-04T07:09:28.933Z,3.50
2023-02-04T07:11:55.689Z,7.90
2023-02-04T07:14:22.379Z,6.47
2023-02-04T07:16:49.069Z,5.33
2023-02-04T07:19:16.066Z,4.37
2023-02-04T07:21:42.699Z,6.03
2023-02-04T07:24:09.483Z,6.63
2023-02-04T07:26:36.187Z,3.80
2023-02-04T07:29:02.857Z,8.33
2023-02-04T07:31:29.690Z,5.03
2023-02-04T07:33:56.421Z,6.43
2023-02-04T07:36:23.245Z,6.27
2023-02-04T07:38:50.207Z,7.07
2023-02-04T07:41:16.894Z,7.93
2023-02-04T07:43:43.604Z,7.20
2023-02-04T07:46:10.401Z,7.77
2023-02-04T07:48:37.088Z,6.20
2023-02-04T07:51:03.859Z,10.60
2023-02-04T07:53:30.736Z,7.00
2023-02-04T07:55:57.399Z,7.33
2023-02-04T07:58:24.261Z,7.10
2023-02-04T08:00:50.909Z,8.30
2023-02-04T08:03:17.809Z,6.93
2023-02-04T08:05:44.505Z,7.87
2023-02-04T08:08:11.159Z,6.90
2023-02-04T08:10:37.835Z,7.50
2023-02-04T08:13:04.721Z,6.60
2023-02-04T08:15:31.888Z,7.60
2023-02-04T08:17:58.664Z,7.03
2023-02-04T08:20:25.440Z,9.73
2023-02-04T08:22:52.152Z,6.57
2023-02-04T08:25:18.881Z,9.00
2023-02-04T08:27:45.591Z,7.17
2023-02-04T08:30:13.478Z,6.47
2023-02-04T08:32:40.206Z,7.87
2023-02-04T08:35:08.119Z,7.23
2023-02-04T08:37:34.889Z,6.97
2023-02-04T08:40:01.606Z,6.50
2023-02-04T08:42:28.463Z,9.50
2023-02-04T08:44:55.332Z,5.47
2023-02-04T08:47:22.071Z,6.93
2023-02-04T08:49:48.798Z,8.57
2023-02-04T08:52:16.674Z,6.53
2023-02-04T08:54:43.424Z,5.77
2023-02-04T08:57:10.118Z,5.77
2023-02-04T08:59:36.834Z,5.73
2023-02-04T09:02:03.665Z,5.73
2023-02-04T09:04:30.592Z,5.77
2023-02-04T09:06:57.362Z,4.40
2023-02-04T09:09:26.199Z,5.53
2023-02-04T09:11:53.155Z,4.43
2023-02-04T09:14:20.025Z,5.33
2023-02-04T09:16:47.143Z,7.40
2023-02-04T09:19:16.418Z,3.13
2023-02-04T09:21:43.073Z,3.57
2023-02-04T09:24:09.786Z,4.20
2023-02-04T09:26:36.611Z,4.30
2023-02-04T09:29:03.311Z,4.07
2023-02-04T09:31:30.049Z,4.73
2023-02-04T09:33:57.082Z,3.80
2023-02-04T09:36:28.660Z,3.43
2023-02-04T09:38:55.450Z,5.20
2023-02-04T09:41:22.473Z,6.07
2023-02-04T09:43:49.263Z,3.37
2023-02-04T09:46:21.616Z,5.57
2023-02-04T09:48:49.428Z,4.63
2023-02-04T09:51:23.904Z,4.73
2023-02-04T09:53:54.152Z,3.43
2023-02-04T09:56:21.156Z,4.50
2023-02-04T09:58:47.989Z,6.03
2023-02-04T10:01:20.568Z,4.10
2023-02-04T10:03:50.328Z,4.00
2023-02-04T10:06:19.188Z,5.37
2023-02-04T10:08:48.102Z,4.50
2023-02-04T10:11:16.596Z,4.00
2023-02-04T10:13:52.358Z,4.57
2023-02-04T10:16:30.252Z,3.67
2023-02-04T10:19:02.847Z,6.20
2023-02-04T10:21:36.856Z,4.40
2023-02-04T10:24:10.105Z,3.80
2023-02-04T10:26:36.916Z,4.10
2023-02-04T10:29:13.021Z,5.07
2023-02-04T10:31:50.400Z,3.77
2023-02-04T10:34:19.102Z,5.47
2023-02-04T10:36:51.376Z,4.77
2023-02-04T10:39:26.735Z,4.27
2023-02-04T10:41:54.287Z,4.90
2023-02-04T10:44:32.705Z,3.63
2023-02-04T10:47:08.774Z,5.10
2023-02-04T10:49:36.630Z,3.43
2023-02-04T10:52:13.697Z,4.87
2023-02-04T10:54:40.394Z,3.20
2023-02-04T10:57:16.089Z,2.60
2023-02-04T10:59:43.472Z,2.33
2023-02-04T11:02:44.164Z,2.00
2023-02-04T11:05:23.416Z,2.37
2023-02-04T11:07:51.120Z,2.03
2023-02-04T11:10:22.692Z,2.00
2023-02-04T11:13:07.848Z,2.43
2023-02-04T11:15:58.074Z,2.30
2023-02-04T11:18:31.286Z,3.67
2023-02-04T11:21:03.855Z,2.53
2023-02-04T11:23:36.028Z,3.90
2023-02-04T11:26:10.913Z,3.50
2023-02-04T11:28:59.563Z,2.40
2023-02-04T11:31:30.883Z,2.63
2023-02-04T11:34:13.557Z,2.87
2023-02-04T11:37:02.558Z,3.63
2023-02-04T11:39:39.082Z,2.97
2023-02-04T11:42:18.392Z,3.07
2023-02-04T11:44:55.593Z,2.53
2023-02-04T11:47:37.468Z,3.13
2023-02-04T11:50:25.866Z,3.40
2023-02-04T11:52:58.186Z,3.37
2023-02-04T11:55:31.007Z,3.00
2023-02-04T11:57:58.808Z,2.17
2023-02-04T12:00:33.510Z,3.00
2023-02-04T12:03:04.580Z,5.27
2023-02-04T12:05:43.657Z,2.93
2023-02-04T12:08:13.273Z,3.50
2023-02-04T12:10:47.767Z,2.23
2023-02-04T12:13:19.174Z,5.13
2023-02-04T12:15:59.378Z,3.67
2023-02-04T12:18:27.933Z,2.33
2023-02-04T12:20:56.498Z,1.57
2023-02-04T12:23:24.190Z,3.23
2023-02-04T12:25:51.263Z,3.90
2023-02-04T12:28:18.041Z,3.67
2023-02-04T12:30:44.846Z,3.87
2023-02-04T12:33:13.192Z,2.97
2023-02-04T12:35:42.283Z,2.47
2023-02-04T12:38:10.353Z,3.17
2023-02-04T12:40:37.753Z,2.80
2023-02-04T12:43:04.853Z,3.17
2023-02-04T12:45:31.938Z,2.83
2023-02-04T12:47:58.843Z,2.90
2023-02-04T12:50:26.816Z,2.90
2023-02-04T12:52:56.341Z,4.43
2023-02-04T12:55:25.181Z,4.40
2023-02-04T12:57:52.717Z,1.90
2023-02-04T13:00:21.101Z,2.83
2023-02-04T13:02:48.329Z,2.57
2023-02-04T13:05:16.257Z,3.37
2023-02-04T13:07:42.950Z,3.77
2023-02-04T13:10:10.683Z,2.20
2023-02-04T13:12:37.413Z,3.20
2023-02-04T13:15:04.675Z,2.83
2023-02-04T13:17:31.378Z,2.30
2023-02-04T13:19:58.130Z,2.00
2023-02-04T13:22:24.882Z,3.17
2023-02-04T13:24:51.536Z,4.23
2023-02-04T13:27:19.060Z,3.00
2023-02-04T13:29:45.931Z,2.93
2023-02-04T13:32:12.951Z,2.63
2023-02-04T13:34:39.622Z,2.27
2023-02-04T13:37:06.361Z,1.80
2023-02-04T13:39:33.029Z,2.03
2023-02-04T13:41:59.801Z,3.67
2023-02-04T13:44:26.523Z,2.33
2023-02-04T13:46:53.369Z,2.90
2023-02-04T13:49:21.706Z,3.57
2023-02-04T13:51:48.426Z,3.20
2023-02-04T13:54:15.209Z,2.50
2023-02-04T13:56:41.936Z,3.27
2023-02-04T13:59:08.700Z,2.73
2023-02-04T14:01:35.504Z,4.77
2023-02-04T14:04:02.335Z,3.77
2023-02-04T14:06:33.901Z,3.10
2023-02-04T14:09:04.609Z,2.87
2023-02-04T14:11:31.334Z,2.87
2023-02-04T14:13:58.001Z,2.93
2023-02-04T14:16:24.815Z,4.53
2023-02-04T14:18:51.552Z,3.53
2023-02-04T14:21:18.279Z,4.10
2023-02-04T14:23:45.000Z,4.93
2023-02-04T14:26:11.682Z,2.43
2023-02-04T14:28:38.386Z,4.50
2023-02-04T14:31:05.279Z,4.53
2023-02-04T14:33:32.090Z,2.83
2023-02-04T14:35:58.912Z,3.07
2023-02-04T14:38:30.929Z,7.00
2023-02-04T14:40:58.744Z,4.03
2023-02-04T14:43:25.546Z,3.00
2023-02-04T14:45:52.709Z,2.97
2023-02-04T14:48:19.716Z,2.23
2023-02-04T14:50:46.429Z,2.60
2023-02-04T14:53:13.167Z,4.23
2023-02-04T14:55:39.868Z,4.57
2023-02-04T14:58:06.807Z,3.10
2023-02-04T15:00:33.900Z,2.30
2023-02-04T15:03:00.997Z,2.53
2023-02-04T15:05:27.775Z,3.23
2023-02-04T15:07:54.523Z,4.63
2023-02-04T15:10:22.961Z,4.43
2023-02-04T15:12:49.841Z,3.67
2023-02-04T15:15:16.855Z,2.73
2023-02-04T15:17:43.552Z,3.13
2023-02-04T15:20:11.447Z,4.37
2023-02-04T15:22:39.120Z,3.17
2023-02-04T15:25:06.158Z,4.70
2023-02-04T15:27:32.902Z,2.87
2023-02-04T15:29:59.670Z,3.47
2023-02-04T15:32:26.469Z,3.67
2023-02-04T15:34:53.104Z,3.80
2023-02-04T15:37:19.955Z,3.77
2023-02-04T15:39:46.710Z,4.57
2023-02-04T15:42:13.538Z,2.70
2023-02-04T15:44:40.280Z,3.80
2023-02-04T15:47:06.959Z,2.93
2023-02-04T15:49:35.141Z,3.53
2023-02-04T15:52:02.501Z,2.47
2023-02-04T15:54:29.493Z,2.60
2023-02-04T15:56:56.322Z,3.77
2023-02-04T15:59:23.048Z,3.63
2023-02-04T16:01:50.748Z,5.43
2023-02-04T16:04:19.776Z,3.70
2023-02-04T16:06:58.165Z,2.97
2023-02-04T16:09:25.896Z,2.90
2023-02-04T16:11:52.567Z,5.50
2023-02-04T16:14:19.460Z,4.00
2023-02-04T16:16:46.144Z,7.33
2023-02-04T16:19:12.824Z,4.40
2023-02-04T16:21:39.560Z,5.63
2023-02-04T16:24:06.528Z,3.80
2023-02-04T16:26:33.253Z,2.73
2023-02-04T16:28:59.972Z,4.57
2023-02-04T16:31:26.832Z,6.33
2023-02-04T16:33:54.105Z,3.10
2023-02-04T16:36:21.029Z,2.30
2023-02-04T16:38:47.716Z,3.63
2023-02-04T16:41:14.549Z,5.03
2023-02-04T16:43:41.406Z,3.37
2023-02-04T16:46:08.321Z,5.83
2023-02-04T16:48:36.469Z,4.07
2023-02-04T16:51:03.969Z,5.13
2023-02-04T16:53:30.744Z,3.23
2023-02-04T16:55:57.475Z,4.27
2023-02-04T16:58:24.394Z,5.90
2023-02-04T17:00:51.159Z,5.13
2023-02-04T17:03:17.955Z,7.30
2023-02-04T17:05:44.773Z,3.90
2023-02-04T17:08:13.607Z,4.47
2023-02-04T17:11:00.131Z,6.07
2023-02-04T17:13:26.924Z,5.33
2023-02-04T17:15:59.340Z,6.00
2023-02-04T17:18:27.976Z,4.63
2023-02-04T17:20:54.773Z,5.03
2023-02-04T17:23:21.739Z,4.63
2023-02-04T17:25:48.661Z,5.90
2023-02-04T17:28:15.408Z,3.73
2023-02-04T17:30:42.236Z,6.43
2023-02-04T17:33:09.059Z,5.63
2023-02-04T17:35:35.884Z,5.30
2023-02-04T17:38:02.935Z,5.17
2023-02-04T17:40:30.236Z,7.00
2023-02-04T17:42:57.186Z,5.17
2023-02-04T17:45:24.717Z,3.90
2023-02-04T17:47:51.532Z,5.03
2023-02-04T17:50:18.401Z,5.53
2023-02-04T17:52:45.476Z,5.83
2023-02-04T17:55:27.754Z,6.50
2023-02-04T17:57:55.831Z,3.97
2023-02-04T18:00:25.204Z,5.47
2023-02-04T18:02:52.631Z,6.17
2023-02-04T18:05:23.187Z,4.93
2023-02-04T18:07:58.712Z,5.03
2023-02-04T18:10:29.451Z,6.13
2023-02-04T18:12:58.341Z,5.00
2023-02-04T18:15:30.998Z,5.70
2023-02-04T18:18:23.104Z,5.67
2023-02-04T18:21:00.351Z,4.73
2023-02-04T18:23:29.712Z,6.83
2023-02-04T18:26:01.824Z,5.40
2023-02-04T18:28:28.549Z,5.20
2023-02-04T18:30:58.814Z,6.13
2023-02-04T18:33:26.883Z,5.83
2023-02-04T18:35:59.872Z,6.83
2023-02-04T18:38:29.733Z,7.57
2023-02-04T18:41:20.979Z,6.90
2023-02-04T18:43:53.579Z,6.97
2023-02-04T18:46:26.081Z,6.30
2023-02-04T18:48:59.245Z,6.50
2023-02-04T18:51:34.929Z,7.93
2023-02-04T18:54:20.584Z,7.43
2023-02-04T18:56:48.656Z,6.73
2023-02-04T18:59:18.697Z,8.17
2023-02-04T19:01:48.068Z,8.10
2023-02-04T19:04:26.234Z,7.73
2023-02-04T19:06:55.123Z,7.30
2023-02-04T19:09:32.554Z,8.77
2023-02-04T19:12:13.399Z,6.77
2023-02-04T19:14:44.629Z,8.13
2023-02-04T19:17:14.570Z,8.33
2023-02-04T19:19:46.691Z,6.67
2023-02-04T19:22:20.193Z,7.57
2023-02-04T19:24:48.046Z,9.57
2023-02-04T19:27:48.329Z,7.87
2023-02-04T19:30:30.264Z,8.17
2023-02-04T19:32:59.087Z,7.93
2023-02-04T19:35:28.692Z,9.10
2023-02-04T19:38:02.359Z,7.37
2023-02-04T19:40:34.998Z,8.23
2023-02-04T19:43:16.281Z,7.87
2023-02-04T19:45:43.195Z,7.80
2023-02-04T19:48:36.518Z,6.93
2023-02-04T19:51:23.706Z,7.27
2023-02-04T19:53:52.235Z,6.17
2023-02-04T19:56:42.156Z,8.10
2023-02-04T19:59:28.648Z,10.07
2023-02-04T20:02:35.881Z,6.13
2023-02-04T20:05:16.325Z,8.87
2023-02-04T20:07:42.984Z,8.23
2023-02-04T20:10:19.023Z,8.77
2023-02-04T20:12:45.719Z,9.43
2023-02-04T20:15:19.161Z,9.00
2023-02-04T20:17:49.646Z,10.10
2023-02-04T20:20:24.373Z,9.07
2023-02-04T20:22:52.794Z,11.17
2023-02-04T20:25:19.635Z,9.30
2023-02-04T20:27:49.336Z,8.20
2023-02-04T20:30:15.976Z,9.50
2023-02-04T20:32:45.918Z,9.23
2023-02-04T20:35:15.511Z,12.20
2023-02-04T20:37:43.127Z,11.77
2023-02-04T20:40:39.343Z,10.67
2023-02-04T20:43:24.252Z,11.07
2023-02-04T20:45:53.771Z,7.50
2023-02-04T20:48:25.035Z,8.00
2023-02-04T20:50:53.764Z,8.83
2023-02-04T20:53:24.802Z,11.10
2023-02-04T20:55:56.093Z,13.60
2023-02-04T20:58:26.980Z,7.93
2023-02-04T21:00:56.076Z,10.00
2023-02-04T21:03:27.105Z,10.57
2023-02-04T21:05:57.366Z,7.90
2023-02-04T21:08:45.839Z,10.10
2023-02-04T21:11:12.974Z,9.30
2023-02-04T21:13:40.995Z,10.30
2023-02-04T21:16:08.862Z,10.13
2023-02-04T21:18:36.107Z,11.33
2023-02-04T21:21:10.157Z,11.70
2023-02-04T21:23:37.211Z,10.50
2023-02-04T21:26:04.981Z,8.93
2023-02-04T21:28:32.631Z,9.37
2023-02-04T21:31:00.368Z,9.57
2023-02-04T21:33:27.397Z,8.13
2023-02-04T21:35:54.035Z,9.30
2023-02-04T21:38:20.736Z,9.20
2023-02-04T21:40:47.550Z,8.77
2023-02-04T21:43:14.422Z,11.40
2023-02-04T21:45:41.176Z,6.77
2023-02-04T21:48:08.106Z,7.33
2023-02-04T21:50:41.050Z,7.73
2023-02-04T21:53:08.989Z,11.63
2023-02-04T21:55:36.574Z,11.80
2023-02-04T21:58:03.771Z,11.57
2023-02-04T22:00:30.863Z,13.63
2023-02-04T22:02:57.746Z,10.90
2023-02-04T22:05:25.161Z,12.60
2023-02-04T22:07:53.567Z,10.30
2023-02-04T22:10:25.828Z,11.30
2023-02-04T22:12:52.632Z,8.70
2023-02-04T22:15:24.207Z,9.77
2023-02-04T22:17:52.941Z,12.27
2023-02-04T22:20:21.049Z,8.67
2023-02-04T22:22:50.016Z,13.83
2023-02-04T22:25:19.050Z,10.47
2023-02-04T22:27:46.063Z,11.63
2023-02-04T22:30:14.723Z,9.73
2023-02-04T22:32:41.736Z,9.10
2023-02-04T22:35:12.488Z,10.30
2023-02-04T22:37:41.069Z,9.73
2023-02-04T22:40:10.103Z,12.03
2023-02-04T22:42:36.926Z,14.13
2023-02-04T22:45:03.962Z,10.73
2023-02-04T22:47:31.410Z,11.43
2023-02-04T22:49:58.097Z,9.77
2023-02-04T22:52:24.782Z,10.27
2023-02-04T22:54:52.574Z,12.03
2023-02-04T22:57:19.350Z,11.50
2023-02-04T22:59:46.088Z,10.67
2023-02-04T23:02:12.880Z,11.87
2023-02-04T23:04:39.634Z,14.23
2023-02-04T23:07:06.414Z,15.83
2023-02-04T23:09:33.297Z,13.83
2023-02-04T23:12:12.719Z,15.70
2023-02-04T23:14:45.544Z,12.50
2023-02-04T23:17:13.304Z,12.83
2023-02-04T23:19:40.092Z,13.47
2023-02-04T23:22:08.226Z,16.63
2023-02-04T23:24:35.553Z,12.57
2023-02-04T23:27:04.175Z,12.77
2023-02-04T23:29:32.421Z,12.30
2023-02-04T23:31:59.357Z,12.77
2023-02-04T23:34:26.258Z,15.33
2023-02-04T23:36:53.100Z,11.67
2023-02-04T23:39:20.784Z,13.90
2023-02-04T23:41:48.296Z,13.83
2023-02-04T23:44:15.468Z,14.80
2023-02-04T23:46:42.394Z,14.93
2023-02-04T23:49:09.632Z,13.40
2023-02-04T23:51:36.847Z,13.30
2023-02-04T23:54:04.152Z,13.67
2023-02-04T23:56:30.839Z,13.53
2023-02-04T23:58:57.526Z,12.17
